CYUL/YUL METAR and TAF weather

Enter ICAO airport designator
Station Type Date Time Source
CYUL METAR 2020/10/20 17:00 UTC NOAA

CYUL 201700Z 24010KT 15SM SCT008 BKN012 OVC018 09/07 A3024 RMK SF4SC3SC1 SLP243


Station Type Date Time Source
CYUL Decoded METAR 2020/10/20 17:00 UTC NOAA

Montreal / Pierre Elliot Trudeau International Airport, Que, Canada (CYUL) 45-28N 073-45W 36M
Oct 20, 2020 - 01:00 PM EDT / 2020.10.20 1700 UTC
Wind: from the WSW (240 degrees) at 12 MPH (10 KT):0
Visibility: 15 mile(s):0
Sky conditions: overcast
Temperature: 48 F (9 C)
Dew Point: 44 F (7 C)
Relative Humidity: 87%
Pressure (altimeter): 30.24 in. Hg (1024 hPa)
ob: CYUL 201700Z 24010KT 15SM SCT008 BKN012 OVC018 09/07 A3024 RMK SF4SC3SC1 SLP243
cycle: 17

Station Type Date Time Source
CYUL TAF 2020/10/20 18:51 UTC NOAA

TAF CYUL 201746Z 2018/2118 25010KT P6SM FEW008 BKN015 OVC025
TEMPO 2018/2020 SCT015 BKN030 BKN080
FM202000 26008KT P6SM BKN030
BECMG 2101/2103 05008KT
FM210600 05010KT P6SM OVC020
FM210900 05012KT P6SM -DZ BKN008 OVC012
FM211100 05012KT 5SM -DZ BR OVC006
FM211400 15012KT 4SM -RA BR OVC007
BECMG 2116/2118 20015G25KT
RMK NXT FCST BY 202100Z

Example: see airport list